الصفحة الرئيسية
METAR-TAF:

METAR-TAF

مطار :

Tacna, بيرو

دائرة عرض: 18-04S, خط طول: 070-18W, ارتفاع: 468 متر

مراقبة الطقس الحالي

تاريخ ووقت الإصدار 18 دقيقة قبل الساعة 12:00UTC
ريح 3 عقدة من الجنوب/الجنوب الشرقي
درجة الحرارة 13°درجة مئوية
الرطوبة 94%
ضغط 1019 hPa
الرؤية: 3000 متر
غيوم مفككة على ارتفاع 1000 قدم
ملبد بالغيوم على ارتفاع 2000 قدم
غشاء

METAR: SPTN 141200Z 15003KT 7000 3000N BR BKN010 OVC020 13/12 Q1019 RMK TN13.0 PP000

زمن: 07:18 (12:18 UTC)

توقعات

تاريخ ووقت الإصدار 58 دقيقة قبل الساعة 11:20UTC
التوقعات صالحة من14 الساعة 12 UTC إلى 15 الساعة 12 UTC
ريح 4 عقدة من الغرب
الرؤية: 8000 متر
غيوم متفرقة على ارتفاع 1500 قدم
غيوم مفككة على ارتفاع 2500 قدم
من 14 الساعة 1530 UTC
ريح 8 عقدة من الغرب/الجنوب الغربي
الرؤية 10 كم أو أكثر
غيوم قليلة على ارتفاع 4000 قدم
من 15 الساعة 0000 UTC
ريح 4 عقدة من الغرب/الشمال الغربي
الرؤية 10 كم أو أكثر
غيوم مفككة على ارتفاع 2000 قدم

TAF: SPTN 141120Z 1412/1512 28004KT 8000 SCT015 BKN025 TX23/1419Z TN12/1511Z FM141530 24008KT 9999 FEW040 FM150000 30004KT 9999 BKN020

أرصاد الطقس والتوقعات من أكثر من 4000 مطار (تقارير الطقس للمطار METAR والتنبؤ بالطقس بالمطارTAF).

المحطات المتاحة هي النقط الصفراء والحمراء على الخريطة.

حرك المؤشر فوق النقطة لمعرفة اسم المحطة.

ثم انقر لمعرفة أرصاد وتوقعات الطقس.

لتغيير الخارطة: اضغط على الأزرار الخضراء مع رمز الصليب الأسود للتكبير. على الزر الأخضر مع شرطة للتصغير، أو على الأسهم الخضراء للخرائط المجاورة.


METAR-TAF: